sensor_id;sensor_type;location;lat;lon;timestamp;temperature;humidity
40670;DHT22;26355;45.528;9.234;2023-03-20T00:02:00;14.20;99.90
40670;DHT22;26355;45.528;9.234;2023-03-20T00:04:26;14.30;99.90
40670;DHT22;26355;45.528;9.234;2023-03-20T00:06:53;14.20;99.90
40670;DHT22;26355;45.528;9.234;2023-03-20T00:09:19;14.20;99.90
40670;DHT22;26355;45.528;9.234;2023-03-20T00:11:49;14.40;99.90
40670;DHT22;26355;45.528;9.234;2023-03-20T00:14:18;14.20;99.90
40670;DHT22;26355;45.528;9.234;2023-03-20T00:16:45;14.20;99.90
40670;DHT22;26355;45.528;9.234;2023-03-20T00:19:20;14.90;99.90
40670;DHT22;26355;45.528;9.234;2023-03-20T00:21:51;15.20;99.90
40670;DHT22;26355;45.528;9.234;2023-03-20T00:24:17;14.20;99.90
40670;DHT22;26355;45.528;9.234;2023-03-20T00:26:44;14.00;99.90
40670;DHT22;26355;45.528;9.234;2023-03-20T00:29:23;14.10;99.90
40670;DHT22;26355;45.528;9.234;2023-03-20T00:31:49;14.00;99.90
40670;DHT22;26355;45.528;9.234;2023-03-20T00:34:17;14.10;99.90
40670;DHT22;26355;45.528;9.234;2023-03-20T00:36:43;14.10;99.90
40670;DHT22;26355;45.528;9.234;2023-03-20T00:39:09;14.10;99.90
40670;DHT22;26355;45.528;9.234;2023-03-20T00:46:51;14.00;99.90
40670;DHT22;26355;45.528;9.234;2023-03-20T00:49:30;14.20;99.90
40670;DHT22;26355;45.528;9.234;2023-03-20T00:51:57;14.10;99.90
40670;DHT22;26355;45.528;9.234;2023-03-20T00:54:22;14.10;99.90
40670;DHT22;26355;45.528;9.234;2023-03-20T00:56:56;14.00;99.90
40670;DHT22;26355;45.528;9.234;2023-03-20T00:59:27;14.00;99.90
40670;DHT22;26355;45.528;9.234;2023-03-20T01:01:53;14.30;99.90
40670;DHT22;26355;45.528;9.234;2023-03-20T01:04:19;13.90;99.90
40670;DHT22;26355;45.528;9.234;2023-03-20T01:06:45;14.00;99.90
40670;DHT22;26355;45.528;9.234;2023-03-20T01:09:11;14.10;99.90
40670;DHT22;26355;45.528;9.234;2023-03-20T01:11:37;13.90;99.90
40670;DHT22;26355;45.528;9.234;2023-03-20T01:14:04;14.00;99.90
40670;DHT22;26355;45.528;9.234;2023-03-20T01:16:30;13.90;99.90
40670;DHT22;26355;45.528;9.234;2023-03-20T01:18:56;14.30;99.90
40670;DHT22;26355;45.528;9.234;2023-03-20T01:21:22;13.90;99.90
40670;DHT22;26355;45.528;9.234;2023-03-20T01:23:48;13.90;99.90
40670;DHT22;26355;45.528;9.234;2023-03-20T01:26:26;13.80;99.90
40670;DHT22;26355;45.528;9.234;2023-03-20T01:28:54;14.10;99.90
40670;DHT22;26355;45.528;9.234;2023-03-20T01:31:20;13.80;99.90
40670;DHT22;26355;45.528;9.234;2023-03-20T01:33:45;13.60;99.90
40670;DHT22;26355;45.528;9.234;2023-03-20T01:36:14;13.60;99.90
40670;DHT22;26355;45.528;9.234;2023-03-20T01:38:42;13.60;99.90
40670;DHT22;26355;45.528;9.234;2023-03-20T01:41:16;13.70;99.90
40670;DHT22;26355;45.528;9.234;2023-03-20T01:43:43;13.80;99.90
40670;DHT22;26355;45.528;9.234;2023-03-20T01:46:26;13.50;99.90
40670;DHT22;26355;45.528;9.234;2023-03-20T01:51:24;13.60;99.90
40670;DHT22;26355;45.528;9.234;2023-03-20T01:56:20;13.30;99.90
40670;DHT22;26355;45.528;9.234;2023-03-20T01:58:49;13.30;99.90
40670;DHT22;26355;45.528;9.234;2023-03-20T02:01:16;13.20;99.90
40670;DHT22;26355;45.528;9.234;2023-03-20T02:03:46;13.20;99.90
40670;DHT22;26355;45.528;9.234;2023-03-20T02:06:12;13.10;99.90
40670;DHT22;26355;45.528;9.234;2023-03-20T02:08:46;13.30;99.90
40670;DHT22;26355;45.528;9.234;2023-03-20T02:11:12;14.10;99.90
40670;DHT22;26355;45.528;9.234;2023-03-20T02:13:38;13.40;99.90
40670;DHT22;26355;45.528;9.234;2023-03-20T02:16:15;13.10;99.90
40670;DHT22;26355;45.528;9.234;2023-03-20T02:18:44;14.40;99.90
40670;DHT22;26355;45.528;9.234;2023-03-20T02:24:41;13.10;99.90
40670;DHT22;26355;45.528;9.234;2023-03-20T02:30:08;13.10;99.90
40670;DHT22;26355;45.528;9.234;2023-03-20T02:51:05;12.80;99.90
40670;DHT22;26355;45.528;9.234;2023-03-20T03:01:52;12.50;99.90
40670;DHT22;26355;45.528;9.234;2023-03-20T03:04:28;14.00;99.90
40670;DHT22;26355;45.528;9.234;2023-03-20T03:06:57;12.50;99.90
40670;DHT22;26355;45.528;9.234;2023-03-20T03:09:36;13.80;99.90
40670;DHT22;26355;45.528;9.234;2023-03-20T03:12:15;12.50;99.90
40670;DHT22;26355;45.528;9.234;2023-03-20T03:14:51;12.60;99.90
40670;DHT22;26355;45.528;9.234;2023-03-20T03:17:22;12.70;99.90
40670;DHT22;26355;45.528;9.234;2023-03-20T03:19:56;12.70;99.90
40670;DHT22;26355;45.528;9.234;2023-03-20T03:22:23;12.70;99.90
40670;DHT22;26355;45.528;9.234;2023-03-20T03:24:51;12.60;99.90
40670;DHT22;26355;45.528;9.234;2023-03-20T03:27:28;12.70;99.90
40670;DHT22;26355;45.528;9.234;2023-03-20T03:29:59;12.50;99.90
40670;DHT22;26355;45.528;9.234;2023-03-20T03:32:32;12.60;99.90
40670;DHT22;26355;45.528;9.234;2023-03-20T03:34:59;13.80;99.90
40670;DHT22;26355;45.528;9.234;2023-03-20T03:42:55;12.70;99.90
40670;DHT22;26355;45.528;9.234;2023-03-20T03:46:05;12.70;99.90
40670;DHT22;26355;45.528;9.234;2023-03-20T03:48:29;12.60;99.90
40670;DHT22;26355;45.528;9.234;2023-03-20T03:51:04;14.20;99.90
40670;DHT22;26355;45.528;9.234;2023-03-20T03:53:37;12.60;99.90
40670;DHT22;26355;45.528;9.234;2023-03-20T03:56:07;13.20;99.90
40670;DHT22;26355;45.528;9.234;2023-03-20T03:58:44;12.60;99.90
40670;DHT22;26355;45.528;9.234;2023-03-20T04:01:13;12.70;99.90
40670;DHT22;26355;45.528;9.234;2023-03-20T04:03:52;13.30;99.90
40670;DHT22;26355;45.528;9.234;2023-03-20T04:06:20;13.40;99.90
40670;DHT22;26355;45.528;9.234;2023-03-20T04:08:46;13.00;99.90
40670;DHT22;26355;45.528;9.234;2023-03-20T04:11:15;14.90;99.90
40670;DHT22;26355;45.528;9.234;2023-03-20T04:13:41;12.50;99.90
40670;DHT22;26355;45.528;9.234;2023-03-20T04:16:11;13.10;99.90
40670;DHT22;26355;45.528;9.234;2023-03-20T04:18:39;12.50;99.90
40670;DHT22;26355;45.528;9.234;2023-03-20T04:21:04;12.60;99.90
40670;DHT22;26355;45.528;9.234;2023-03-20T04:23:31;12.50;99.90
40670;DHT22;26355;45.528;9.234;2023-03-20T04:25:57;12.40;99.90
40670;DHT22;26355;45.528;9.234;2023-03-20T04:28:23;12.70;99.90
40670;DHT22;26355;45.528;9.234;2023-03-20T04:30:56;12.40;99.90
40670;DHT22;26355;45.528;9.234;2023-03-20T04:33:22;12.20;99.90
40670;DHT22;26355;45.528;9.234;2023-03-20T04:35:49;15.20;99.90
40670;DHT22;26355;45.528;9.234;2023-03-20T04:38:15;12.50;99.90
40670;DHT22;26355;45.528;9.234;2023-03-20T04:40:40;14.20;99.90
40670;DHT22;26355;45.528;9.234;2023-03-20T04:43:06;12.50;99.90
40670;DHT22;26355;45.528;9.234;2023-03-20T04:45:31;13.60;99.90
40670;DHT22;26355;45.528;9.234;2023-03-20T04:47:57;13.70;99.90
40670;DHT22;26355;45.528;9.234;2023-03-20T04:50:23;12.60;99.90
40670;DHT22;26355;45.528;9.234;2023-03-20T04:52:48;12.50;99.90
40670;DHT22;26355;45.528;9.234;2023-03-20T04:55:14;12.60;99.90
40670;DHT22;26355;45.528;9.234;2023-03-20T04:57:40;12.70;99.90
40670;DHT22;26355;45.528;9.234;2023-03-20T05:00:06;12.60;99.90
40670;DHT22;26355;45.528;9.234;2023-03-20T05:02:32;12.70;99.90
40670;DHT22;26355;45.528;9.234;2023-03-20T05:04:58;14.10;99.90
40670;DHT22;26355;45.528;9.234;2023-03-20T05:07:23;13.60;99.90
40670;DHT22;26355;45.528;9.234;2023-03-20T05:09:51;12.60;99.90
40670;DHT22;26355;45.528;9.234;2023-03-20T05:12:17;13.00;99.90
40670;DHT22;26355;45.528;9.234;2023-03-20T05:14:42;13.80;99.90
40670;DHT22;26355;45.528;9.234;2023-03-20T05:17:08;12.60;99.90
40670;DHT22;26355;45.528;9.234;2023-03-20T05:19:33;12.60;99.90
40670;DHT22;26355;45.528;9.234;2023-03-20T05:21:59;13.00;99.90
40670;DHT22;26355;45.528;9.234;2023-03-20T05:24:25;12.60;99.90
40670;DHT22;26355;45.528;9.234;2023-03-20T05:26:53;13.40;99.90
40670;DHT22;26355;45.528;9.234;2023-03-20T05:29:19;14.20;99.90
40670;DHT22;26355;45.528;9.234;2023-03-20T05:31:44;12.80;99.90
40670;DHT22;26355;45.528;9.234;2023-03-20T05:34:10;14.10;99.90
40670;DHT22;26355;45.528;9.234;2023-03-20T05:36:36;13.00;99.90
40670;DHT22;26355;45.528;9.234;2023-03-20T05:39:01;13.00;99.90
40670;DHT22;26355;45.528;9.234;2023-03-20T05:41:27;13.00;99.90
40670;DHT22;26355;45.528;9.234;2023-03-20T05:43:52;13.40;99.90
40670;DHT22;26355;45.528;9.234;2023-03-20T05:46:18;13.70;99.90
40670;DHT22;26355;45.528;9.234;2023-03-20T05:48:43;14.00;99.90
40670;DHT22;26355;45.528;9.234;2023-03-20T05:51:09;14.30;99.90
40670;DHT22;26355;45.528;9.234;2023-03-20T05:53:35;13.50;99.90
40670;DHT22;26355;45.528;9.234;2023-03-20T05:56:00;14.20;99.90
40670;DHT22;26355;45.528;9.234;2023-03-20T05:58:26;13.50;99.90
40670;DHT22;26355;45.528;9.234;2023-03-20T06:00:51;14.50;99.90
40670;DHT22;26355;45.528;9.234;2023-03-20T06:03:17;13.90;99.90
40670;DHT22;26355;45.528;9.234;2023-03-20T06:05:43;13.80;99.90
40670;DHT22;26355;45.528;9.234;2023-03-20T06:08:08;13.70;99.90
40670;DHT22;26355;45.528;9.234;2023-03-20T06:10:34;14.20;99.90
40670;DHT22;26355;45.528;9.234;2023-03-20T06:13:00;13.60;99.90
40670;DHT22;26355;45.528;9.234;2023-03-20T06:15:26;13.70;99.90
40670;DHT22;26355;45.528;9.234;2023-03-20T06:17:53;13.70;99.90
40670;DHT22;26355;45.528;9.234;2023-03-20T06:20:19;13.60;99.90
40670;DHT22;26355;45.528;9.234;2023-03-20T06:22:45;13.60;99.90
40670;DHT22;26355;45.528;9.234;2023-03-20T06:25:11;13.80;99.90
40670;DHT22;26355;45.528;9.234;2023-03-20T06:27:36;14.10;99.90
40670;DHT22;26355;45.528;9.234;2023-03-20T06:30:03;14.30;99.90
40670;DHT22;26355;45.528;9.234;2023-03-20T06:32:28;14.50;99.90
40670;DHT22;26355;45.528;9.234;2023-03-20T06:34:54;14.80;99.90
40670;DHT22;26355;45.528;9.234;2023-03-20T06:37:20;15.00;99.90
40670;DHT22;26355;45.528;9.234;2023-03-20T06:39:46;15.20;99.90
40670;DHT22;26355;45.528;9.234;2023-03-20T06:42:12;15.30;99.90
40670;DHT22;26355;45.528;9.234;2023-03-20T06:44:38;15.60;99.90
40670;DHT22;26355;45.528;9.234;2023-03-20T06:47:04;15.50;99.90
40670;DHT22;26355;45.528;9.234;2023-03-20T06:49:30;15.50;99.90
40670;DHT22;26355;45.528;9.234;2023-03-20T06:51:55;15.70;99.90
40670;DHT22;26355;45.528;9.234;2023-03-20T06:54:21;15.90;99.90
40670;DHT22;26355;45.528;9.234;2023-03-20T06:56:46;16.00;99.90
40670;DHT22;26355;45.528;9.234;2023-03-20T06:59:12;16.10;99.90
40670;DHT22;26355;45.528;9.234;2023-03-20T07:01:38;16.30;99.90
40670;DHT22;26355;45.528;9.234;2023-03-20T07:04:04;16.80;99.90
40670;DHT22;26355;45.528;9.234;2023-03-20T07:06:30;16.50;99.90
40670;DHT22;26355;45.528;9.234;2023-03-20T07:08:56;16.70;99.90
40670;DHT22;26355;45.528;9.234;2023-03-20T07:11:22;17.00;99.90
40670;DHT22;26355;45.528;9.234;2023-03-20T07:13:48;17.20;99.90
40670;DHT22;26355;45.528;9.234;2023-03-20T07:16:13;17.50;99.90
40670;DHT22;26355;45.528;9.234;2023-03-20T07:18:39;17.80;99.90
40670;DHT22;26355;45.528;9.234;2023-03-20T07:21:05;17.70;99.90
40670;DHT22;26355;45.528;9.234;2023-03-20T07:23:32;17.80;99.90
40670;DHT22;26355;45.528;9.234;2023-03-20T07:26:00;18.10;99.90
40670;DHT22;26355;45.528;9.234;2023-03-20T07:28:26;17.90;99.90
40670;DHT22;26355;45.528;9.234;2023-03-20T07:30:52;17.80;99.90
40670;DHT22;26355;45.528;9.234;2023-03-20T07:33:18;17.70;99.90
40670;DHT22;26355;45.528;9.234;2023-03-20T07:35:43;17.60;99.90
40670;DHT22;26355;45.528;9.234;2023-03-20T07:38:09;17.70;99.90
40670;DHT22;26355;45.528;9.234;2023-03-20T07:40:35;17.10;99.90
40670;DHT22;26355;45.528;9.234;2023-03-20T07:43:01;17.30;99.90
40670;DHT22;26355;45.528;9.234;2023-03-20T07:45:26;17.20;99.90
40670;DHT22;26355;45.528;9.234;2023-03-20T07:47:52;17.40;99.90
40670;DHT22;26355;45.528;9.234;2023-03-20T07:50:18;17.30;99.90
40670;DHT22;26355;45.528;9.234;2023-03-20T07:52:47;18.60;99.90
40670;DHT22;26355;45.528;9.234;2023-03-20T07:55:14;17.40;99.90
40670;DHT22;26355;45.528;9.234;2023-03-20T07:57:40;17.50;99.90
40670;DHT22;26355;45.528;9.234;2023-03-20T08:00:07;17.50;99.90
40670;DHT22;26355;45.528;9.234;2023-03-20T08:02:33;17.20;99.90
40670;DHT22;26355;45.528;9.234;2023-03-20T08:04:59;17.20;99.90
40670;DHT22;26355;45.528;9.234;2023-03-20T08:07:24;17.20;99.90
40670;DHT22;26355;45.528;9.234;2023-03-20T08:09:50;17.30;99.90
40670;DHT22;26355;45.528;9.234;2023-03-20T08:12:17;17.30;99.90
40670;DHT22;26355;45.528;9.234;2023-03-20T08:14:42;17.40;99.90
40670;DHT22;26355;45.528;9.234;2023-03-20T08:17:08;17.70;99.90
40670;DHT22;26355;45.528;9.234;2023-03-20T08:19:34;17.60;99.90
40670;DHT22;26355;45.528;9.234;2023-03-20T08:22:00;17.60;99.90
40670;DHT22;26355;45.528;9.234;2023-03-20T08:24:26;17.60;99.90
40670;DHT22;26355;45.528;9.234;2023-03-20T08:26:52;17.60;99.90
40670;DHT22;26355;45.528;9.234;2023-03-20T08:29:36;17.60;99.90
40670;DHT22;26355;45.528;9.234;2023-03-20T08:32:02;17.40;99.90
40670;DHT22;26355;45.528;9.234;2023-03-20T08:34:28;17.50;99.90
40670;DHT22;26355;45.528;9.234;2023-03-20T08:36:55;17.70;99.90
40670;DHT22;26355;45.528;9.234;2023-03-20T08:39:21;17.70;99.90
40670;DHT22;26355;45.528;9.234;2023-03-20T08:41:46;17.60;99.90
40670;DHT22;26355;45.528;9.234;2023-03-20T08:44:12;17.60;99.90
40670;DHT22;26355;45.528;9.234;2023-03-20T08:46:38;17.70;99.90
40670;DHT22;26355;45.528;9.234;2023-03-20T08:49:04;17.80;99.90
40670;DHT22;26355;45.528;9.234;2023-03-20T08:51:30;17.70;99.90
40670;DHT22;26355;45.528;9.234;2023-03-20T08:53:56;17.80;99.90
40670;DHT22;26355;45.528;9.234;2023-03-20T08:56:22;17.90;99.90
40670;DHT22;26355;45.528;9.234;2023-03-20T08:58:47;17.80;99.90
40670;DHT22;26355;45.528;9.234;2023-03-20T09:01:13;17.80;99.90
40670;DHT22;26355;45.528;9.234;2023-03-20T09:03:39;17.90;99.90
40670;DHT22;26355;45.528;9.234;2023-03-20T09:06:07;17.90;99.90
40670;DHT22;26355;45.528;9.234;2023-03-20T09:08:33;17.90;99.90
40670;DHT22;26355;45.528;9.234;2023-03-20T09:10:58;17.80;99.90
40670;DHT22;26355;45.528;9.234;2023-03-20T09:13:24;17.80;99.90
40670;DHT22;26355;45.528;9.234;2023-03-20T09:15:51;17.60;99.90
40670;DHT22;26355;45.528;9.234;2023-03-20T09:18:19;17.70;99.90
40670;DHT22;26355;45.528;9.234;2023-03-20T09:20:46;17.80;99.90
40670;DHT22;26355;45.528;9.234;2023-03-20T09:23:12;17.80;99.90
40670;DHT22;26355;45.528;9.234;2023-03-20T09:25:37;17.50;99.90
40670;DHT22;26355;45.528;9.234;2023-03-20T09:28:03;17.60;99.90
40670;DHT22;26355;45.528;9.234;2023-03-20T09:30:29;17.50;99.90
40670;DHT22;26355;45.528;9.234;2023-03-20T09:36:30;17.60;99.90
40670;DHT22;26355;45.528;9.234;2023-03-20T09:38:55;17.90;99.90
40670;DHT22;26355;45.528;9.234;2023-03-20T09:41:25;18.00;99.90
40670;DHT22;26355;45.528;9.234;2023-03-20T09:55:05;18.30;99.90
40670;DHT22;26355;45.528;9.234;2023-03-20T09:57:39;18.00;99.90
40670;DHT22;26355;45.528;9.234;2023-03-20T10:00:11;18.10;99.90
40670;DHT22;26355;45.528;9.234;2023-03-20T10:03:14;18.40;99.90
40670;DHT22;26355;45.528;9.234;2023-03-20T10:06:13;18.40;99.90
40670;DHT22;26355;45.528;9.234;2023-03-20T10:08:40;18.40;99.90
40670;DHT22;26355;45.528;9.234;2023-03-20T10:14:10;18.70;99.90
40670;DHT22;26355;45.528;9.234;2023-03-20T10:16:51;18.80;99.90
40670;DHT22;26355;45.528;9.234;2023-03-20T10:22:46;19.10;99.90
40670;DHT22;26355;45.528;9.234;2023-03-20T10:25:30;19.30;99.90
40670;DHT22;26355;45.528;9.234;2023-03-20T10:27:59;19.30;99.90
40670;DHT22;26355;45.528;9.234;2023-03-20T10:40:57;19.60;99.90
40670;DHT22;26355;45.528;9.234;2023-03-20T10:43:50;19.50;99.90
40670;DHT22;26355;45.528;9.234;2023-03-20T10:46:41;19.40;99.90
40670;DHT22;26355;45.528;9.234;2023-03-20T10:52:38;18.80;99.90
40670;DHT22;26355;45.528;9.234;2023-03-20T10:55:11;18.90;99.90
40670;DHT22;26355;45.528;9.234;2023-03-20T10:57:43;18.70;99.90
40670;DHT22;26355;45.528;9.234;2023-03-20T11:00:21;18.90;99.90
40670;DHT22;26355;45.528;9.234;2023-03-20T11:02:48;18.70;99.90
40670;DHT22;26355;45.528;9.234;2023-03-20T11:05:28;18.40;99.90
40670;DHT22;26355;45.528;9.234;2023-03-20T11:08:04;18.30;99.90
40670;DHT22;26355;45.528;9.234;2023-03-20T11:10:33;18.40;99.90
40670;DHT22;26355;45.528;9.234;2023-03-20T11:13:24;18.20;99.90
40670;DHT22;26355;45.528;9.234;2023-03-20T11:15:51;17.80;99.90
40670;DHT22;26355;45.528;9.234;2023-03-20T11:18:17;17.60;99.90
40670;DHT22;26355;45.528;9.234;2023-03-20T11:20:51;17.80;99.90
40670;DHT22;26355;45.528;9.234;2023-03-20T11:23:27;17.80;99.90
40670;DHT22;26355;45.528;9.234;2023-03-20T11:25:57;17.60;99.90
40670;DHT22;26355;45.528;9.234;2023-03-20T11:31:06;17.60;99.90
40670;DHT22;26355;45.528;9.234;2023-03-20T11:33:45;17.70;99.90
40670;DHT22;26355;45.528;9.234;2023-03-20T11:36:27;18.00;99.90
40670;DHT22;26355;45.528;9.234;2023-03-20T11:39:22;17.60;99.90
40670;DHT22;26355;45.528;9.234;2023-03-20T11:41:50;17.90;99.90
40670;DHT22;26355;45.528;9.234;2023-03-20T11:44:33;17.80;99.90
40670;DHT22;26355;45.528;9.234;2023-03-20T11:47:15;17.70;99.90
40670;DHT22;26355;45.528;9.234;2023-03-20T11:49:51;17.30;99.90
40670;DHT22;26355;45.528;9.234;2023-03-20T11:52:33;17.50;99.90
40670;DHT22;26355;45.528;9.234;2023-03-20T11:55:02;17.50;99.90
40670;DHT22;26355;45.528;9.234;2023-03-20T11:57:40;17.50;99.90
40670;DHT22;26355;45.528;9.234;2023-03-20T12:00:20;17.60;99.90
40670;DHT22;26355;45.528;9.234;2023-03-20T12:02:46;17.60;99.90
40670;DHT22;26355;45.528;9.234;2023-03-20T12:05:33;17.70;99.90
40670;DHT22;26355;45.528;9.234;2023-03-20T12:08:18;17.30;99.90
40670;DHT22;26355;45.528;9.234;2023-03-20T12:10:53;17.50;99.90
40670;DHT22;26355;45.528;9.234;2023-03-20T12:13:27;17.70;99.90
40670;DHT22;26355;45.528;9.234;2023-03-20T12:16:01;17.80;99.90
40670;DHT22;26355;45.528;9.234;2023-03-20T12:18:44;17.50;99.90
40670;DHT22;26355;45.528;9.234;2023-03-20T12:23:42;17.70;99.90
40670;DHT22;26355;45.528;9.234;2023-03-20T12:26:16;17.90;99.90
40670;DHT22;26355;45.528;9.234;2023-03-20T12:32:04;18.10;99.90
40670;DHT22;26355;45.528;9.234;2023-03-20T12:34:52;18.10;99.90
40670;DHT22;26355;45.528;9.234;2023-03-20T12:37:19;18.30;99.90
40670;DHT22;26355;45.528;9.234;2023-03-20T12:39:55;18.20;99.90
40670;DHT22;26355;45.528;9.234;2023-03-20T12:42:46;18.60;99.90
40670;DHT22;26355;45.528;9.234;2023-03-20T12:45:19;18.60;99.90
40670;DHT22;26355;45.528;9.234;2023-03-20T12:50:35;18.70;99.90
40670;DHT22;26355;45.528;9.234;2023-03-20T13:01:05;18.70;99.90
40670;DHT22;26355;45.528;9.234;2023-03-20T13:03:56;18.80;99.90
40670;DHT22;26355;45.528;9.234;2023-03-20T13:11:50;18.80;99.90
40670;DHT22;26355;45.528;9.234;2023-03-20T13:14:25;18.70;99.90
40670;DHT22;26355;45.528;9.234;2023-03-20T13:19:36;18.80;99.90
40670;DHT22;26355;45.528;9.234;2023-03-20T13:22:05;18.80;99.90
40670;DHT22;26355;45.528;9.234;2023-03-20T13:24:40;18.70;99.90
40670;DHT22;26355;45.528;9.234;2023-03-20T13:27:33;19.30;99.90
40670;DHT22;26355;45.528;9.234;2023-03-20T13:38:11;19.00;99.90
40670;DHT22;26355;45.528;9.234;2023-03-20T13:40:42;18.90;99.90
40670;DHT22;26355;45.528;9.234;2023-03-20T13:43:48;18.90;99.90
40670;DHT22;26355;45.528;9.234;2023-03-20T13:46:30;18.90;99.90
40670;DHT22;26355;45.528;9.234;2023-03-20T13:52:28;18.70;99.90
40670;DHT22;26355;45.528;9.234;2023-03-20T13:55:23;18.40;99.90
40670;DHT22;26355;45.528;9.234;2023-03-20T14:03:31;18.70;99.90
40670;DHT22;26355;45.528;9.234;2023-03-20T14:05:58;18.70;99.90
40670;DHT22;26355;45.528;9.234;2023-03-20T14:11:05;18.90;99.90
40670;DHT22;26355;45.528;9.234;2023-03-20T14:13:33;18.80;99.90
40670;DHT22;26355;45.528;9.234;2023-03-20T14:16:07;18.90;99.90
40670;DHT22;26355;45.528;9.234;2023-03-20T14:18:34;18.90;99.90
40670;DHT22;26355;45.528;9.234;2023-03-20T14:21:11;18.60;99.90
40670;DHT22;26355;45.528;9.234;2023-03-20T14:23:46;18.60;99.90
40670;DHT22;26355;45.528;9.234;2023-03-20T14:26:24;18.60;99.90
40670;DHT22;26355;45.528;9.234;2023-03-20T14:31:35;19.00;99.90
40670;DHT22;26355;45.528;9.234;2023-03-20T14:42:18;18.40;99.90
40670;DHT22;26355;45.528;9.234;2023-03-20T14:53:23;18.60;99.90
40670;DHT22;26355;45.528;9.234;2023-03-20T14:56:05;18.80;99.90
40670;DHT22;26355;45.528;9.234;2023-03-20T14:58:42;18.60;99.90
40670;DHT22;26355;45.528;9.234;2023-03-20T15:01:24;18.70;99.90
40670;DHT22;26355;45.528;9.234;2023-03-20T15:03:58;18.50;99.90
40670;DHT22;26355;45.528;9.234;2023-03-20T15:06:27;18.40;99.90
40670;DHT22;26355;45.528;9.234;2023-03-20T15:08:57;18.70;99.90
40670;DHT22;26355;45.528;9.234;2023-03-20T15:14:54;18.40;99.90
40670;DHT22;26355;45.528;9.234;2023-03-20T15:17:43;18.50;99.90
40670;DHT22;26355;45.528;9.234;2023-03-20T15:20:20;18.40;99.90
40670;DHT22;26355;45.528;9.234;2023-03-20T15:22:53;18.50;99.70
40670;DHT22;26355;45.528;9.234;2023-03-20T15:25:21;18.30;99.60
40670;DHT22;26355;45.528;9.234;2023-03-20T15:27:47;18.30;99.80
40670;DHT22;26355;45.528;9.234;2023-03-20T15:30:21;18.40;99.80
40670;DHT22;26355;45.528;9.234;2023-03-20T15:32:48;18.50;99.60
40670;DHT22;26355;45.528;9.234;2023-03-20T15:35:20;18.50;99.50
40670;DHT22;26355;45.528;9.234;2023-03-20T15:37:47;18.50;99.70
40670;DHT22;26355;45.528;9.234;2023-03-20T15:40:28;18.40;99.70
40670;DHT22;26355;45.528;9.234;2023-03-20T15:46:15;17.60;99.80
40670;DHT22;26355;45.528;9.234;2023-03-20T15:48:46;18.50;99.90
40670;DHT22;26355;45.528;9.234;2023-03-20T15:51:12;18.40;99.90
40670;DHT22;26355;45.528;9.234;2023-03-20T15:53:38;18.50;99.90
40670;DHT22;26355;45.528;9.234;2023-03-20T15:56:15;18.40;99.90
40670;DHT22;26355;45.528;9.234;2023-03-20T15:58:42;18.40;99.90
40670;DHT22;26355;45.528;9.234;2023-03-20T16:01:16;19.30;99.90
40670;DHT22;26355;45.528;9.234;2023-03-20T16:03:42;18.50;99.90
40670;DHT22;26355;45.528;9.234;2023-03-20T16:06:11;18.20;99.90
40670;DHT22;26355;45.528;9.234;2023-03-20T16:08:40;18.20;99.90
40670;DHT22;26355;45.528;9.234;2023-03-20T16:11:12;18.60;99.90
40670;DHT22;26355;45.528;9.234;2023-03-20T16:13:42;18.30;99.90
40670;DHT22;26355;45.528;9.234;2023-03-20T16:16:30;18.20;99.90
40670;DHT22;26355;45.528;9.234;2023-03-20T16:19:05;18.20;99.90
40670;DHT22;26355;45.528;9.234;2023-03-20T16:21:35;18.30;99.90
40670;DHT22;26355;45.528;9.234;2023-03-20T16:24:08;17.90;99.90
40670;DHT22;26355;45.528;9.234;2023-03-20T16:26:38;18.20;99.90
40670;DHT22;26355;45.528;9.234;2023-03-20T16:29:05;18.00;99.90
40670;DHT22;26355;45.528;9.234;2023-03-20T16:31:34;17.90;99.90
40670;DHT22;26355;45.528;9.234;2023-03-20T16:34:05;17.80;99.90
40670;DHT22;26355;45.528;9.234;2023-03-20T16:36:36;17.70;99.90
40670;DHT22;26355;45.528;9.234;2023-03-20T16:39:08;17.80;99.90
40670;DHT22;26355;45.528;9.234;2023-03-20T16:41:38;17.70;99.90
40670;DHT22;26355;45.528;9.234;2023-03-20T16:46:36;17.80;99.90
40670;DHT22;26355;45.528;9.234;2023-03-20T16:56:02;18.00;99.90
40670;DHT22;26355;45.528;9.234;2023-03-20T17:05:13;17.90;99.90
40670;DHT22;26355;45.528;9.234;2023-03-20T17:08:03;17.80;99.90
40670;DHT22;26355;45.528;9.234;2023-03-20T17:10:29;17.80;99.90
40670;DHT22;26355;45.528;9.234;2023-03-20T17:12:54;17.80;99.90
40670;DHT22;26355;45.528;9.234;2023-03-20T17:15:22;17.60;99.90
40670;DHT22;26355;45.528;9.234;2023-03-20T17:17:49;17.50;99.90
40670;DHT22;26355;45.528;9.234;2023-03-20T17:20:23;18.20;99.90
40670;DHT22;26355;45.528;9.234;2023-03-20T17:22:50;17.60;99.90
40670;DHT22;26355;45.528;9.234;2023-03-20T17:25:15;17.60;99.90
40670;DHT22;26355;45.528;9.234;2023-03-20T17:27:41;17.70;99.90
40670;DHT22;26355;45.528;9.234;2023-03-20T17:30:31;17.60;99.90
40670;DHT22;26355;45.528;9.234;2023-03-20T17:32:56;17.70;99.90
40670;DHT22;26355;45.528;9.234;2023-03-20T17:35:22;17.70;99.90
40670;DHT22;26355;45.528;9.234;2023-03-20T17:37:48;17.70;99.90
40670;DHT22;26355;45.528;9.234;2023-03-20T17:44:08;17.60;99.90
40670;DHT22;26355;45.528;9.234;2023-03-20T17:46:34;17.50;99.90
40670;DHT22;26355;45.528;9.234;2023-03-20T17:49:02;17.50;99.90
40670;DHT22;26355;45.528;9.234;2023-03-20T17:51:29;17.30;99.90
40670;DHT22;26355;45.528;9.234;2023-03-20T17:53:54;17.50;99.90
40670;DHT22;26355;45.528;9.234;2023-03-20T17:56:23;17.50;99.90
40670;DHT22;26355;45.528;9.234;2023-03-20T17:58:49;17.40;99.90
40670;DHT22;26355;45.528;9.234;2023-03-20T18:01:15;17.40;99.90
40670;DHT22;26355;45.528;9.234;2023-03-20T18:03:59;17.50;99.90
40670;DHT22;26355;45.528;9.234;2023-03-20T18:06:30;17.50;99.90
40670;DHT22;26355;45.528;9.234;2023-03-20T18:08:58;18.40;99.90
40670;DHT22;26355;45.528;9.234;2023-03-20T18:11:24;17.40;99.90
40670;DHT22;26355;45.528;9.234;2023-03-20T18:13:50;17.20;99.90
40670;DHT22;26355;45.528;9.234;2023-03-20T18:16:47;17.40;99.90
40670;DHT22;26355;45.528;9.234;2023-03-20T18:19:24;17.30;99.90
40670;DHT22;26355;45.528;9.234;2023-03-20T18:21:50;17.40;99.90
40670;DHT22;26355;45.528;9.234;2023-03-20T18:24:15;17.30;99.90
40670;DHT22;26355;45.528;9.234;2023-03-20T18:26:41;17.30;99.90
40670;DHT22;26355;45.528;9.234;2023-03-20T18:29:10;17.30;99.90
40670;DHT22;26355;45.528;9.234;2023-03-20T18:31:36;17.30;99.90
40670;DHT22;26355;45.528;9.234;2023-03-20T18:34:02;17.30;99.90
40670;DHT22;26355;45.528;9.234;2023-03-20T18:36:28;17.20;99.90
40670;DHT22;26355;45.528;9.234;2023-03-20T18:38:54;17.30;99.90
40670;DHT22;26355;45.528;9.234;2023-03-20T18:41:20;16.60;99.90
40670;DHT22;26355;45.528;9.234;2023-03-20T18:43:45;17.30;99.90
40670;DHT22;26355;45.528;9.234;2023-03-20T18:46:17;17.20;99.90